首页
METAR-TAF:

METAR-TAF

机场 :

小萨尔加多国际机场

阿雷格里港, 南里奥格兰德州, 巴西

纬度: 30-00S, 经度: 051-11W, 海拔: 3米

当前天气观测

该预报发布于19分钟前的18:00 UTC
风速5节,风向西北
温度 16°C
湿度 77%
气压 1013 hPa
能见度10公里或以上
阴天层高于4000英尺

METAR: SBPA 061800Z 32005KT 9999 OVC040 16/12 Q1013

时间: 15:19 (18:19 UTC)

预报

该预报发布于4小时和19分钟前的14:00 UTC
预报有效从06日的 18点(UTC)到 07日的 18点(UTC)
风速5节,风向西转西北
能见度10公里或以上
多云层高于1500英尺
短暂存在
从 06日的 20点(UTC)到 06日的 24点(UTC)
风速10节,风向东转东南
能見度: 5000
多云层高于700英尺
成为
从 07日的 01点(UTC)到 07日的 03点(UTC)
风速5节,风向
能见度10公里或以上
多云层高于500英尺
成为
从 07日的 07点(UTC)到 07日的 09点(UTC)
风速8节,风向北转西北
散云层高于1000英尺
成为
从 07日的 13点(UTC)到 07日的 15点(UTC)
风速5节,风向西转西北
多云层高于4000英尺

TAF: SBPA 061400Z 0618/0718 30005KT 9999 BKN015 TX17/0618Z TN14/0708Z TEMPO 0620/0624 12010KT 5000 RA BKN007 BECMG 0701/0703 36005KT 9999 BKN005 BECMG 0707/0709 34008KT SCT010 BECMG 0713/0715 30005KT BKN040 RMK PEO

超过4000个机场的气象观测和天气预报(METAR&TAF报告)。

可查询的气象台以黄色和红色小点在地图上表示。

将鼠标移到小点上方,可查看气象台名称。

然后点击查看天气观测和预报。

如需切换地图:点击带黑十字的绿色按钮放大地图;点击带横线的绿色按钮缩小地图;或者点击绿色箭头查看邻近地区的地图。


METAR-TAF: